createdAt,value
2022-09-03T00:00:29.382Z,1.40
2022-09-03T00:03:51.708Z,2.20
2022-09-03T00:06:43.072Z,1.50
2022-09-03T00:09:50.811Z,2.30
2022-09-03T00:12:34.011Z,2.60
2022-09-03T00:15:40.639Z,2.10
2022-09-03T00:18:29.287Z,2.80
2022-09-03T00:21:14.961Z,1.50
2022-09-03T00:26:44.320Z,1.30
2022-09-03T00:29:47.347Z,3.60
2022-09-03T00:32:52.075Z,2.10
2022-09-03T00:36:12.765Z,1.80
2022-09-03T00:38:58.709Z,2.30
2022-09-03T00:42:36.383Z,2.90
2022-09-03T00:49:28.831Z,2.60
2022-09-03T00:53:19.825Z,2.60
2022-09-03T00:56:13.001Z,3.90
2022-09-03T01:00:15.346Z,2.90
2022-09-03T01:04:03.402Z,1.20
2022-09-03T01:08:09.638Z,2.90
2022-09-03T01:11:59.608Z,1.80
2022-09-03T01:15:21.673Z,2.30
2022-09-03T01:19:12.494Z,4.80
2022-09-03T01:22:48.159Z,1.40
2022-09-03T01:26:48.830Z,3.50
2022-09-03T01:29:44.575Z,2.40
2022-09-03T01:33:44.663Z,1.30
2022-09-03T01:37:15.789Z,2.50
2022-09-03T01:40:45.552Z,5.30
2022-09-03T01:44:13.328Z,1.80
2022-09-03T01:46:51.660Z,1.50
2022-09-03T01:50:16.405Z,1.60
2022-09-03T01:53:49.534Z,2.20
2022-09-03T01:57:53.315Z,1.60
2022-09-03T02:00:50.049Z,2.10
2022-09-03T02:03:25.037Z,3.50
2022-09-03T02:06:21.538Z,6.00
2022-09-03T02:09:35.571Z,3.00
2022-09-03T02:12:52.663Z,2.30
2022-09-03T02:15:48.093Z,2.30
2022-09-03T02:19:10.535Z,2.30
2022-09-03T02:22:35.222Z,1.90
2022-09-03T02:25:08.449Z,2.50
2022-09-03T02:27:43.917Z,1.50
2022-09-03T02:30:16.059Z,2.00
2022-09-03T02:33:10.987Z,2.40
2022-09-03T02:35:47.213Z,3.00
2022-09-03T02:39:07.408Z,3.50
2022-09-03T02:41:42.797Z,1.20
2022-09-03T02:47:16.397Z,2.50
2022-09-03T02:50:29.663Z,2.40
2022-09-03T02:53:22.842Z,3.10
2022-09-03T02:57:06.843Z,1.90
2022-09-03T02:59:41.819Z,1.90
2022-09-03T03:02:16.794Z,2.00
2022-09-03T03:04:55.626Z,4.20
2022-09-03T03:07:34.728Z,3.70
2022-09-03T03:10:13.438Z,2.40
2022-09-03T03:13:26.873Z,3.60
2022-09-03T03:16:26.893Z,1.90
2022-09-03T03:19:20.790Z,3.20
2022-09-03T03:21:54.621Z,5.10
2022-09-03T03:24:39.691Z,5.00
2022-09-03T03:27:34.351Z,4.70
2022-09-03T03:30:19.442Z,3.00
2022-09-03T03:33:13.812Z,3.10
2022-09-03T03:35:47.933Z,1.60
2022-09-03T03:38:22.950Z,2.70
2022-09-03T03:40:57.707Z,2.30
2022-09-03T03:43:32.321Z,1.50
2022-09-03T03:46:17.331Z,2.00
2022-09-03T03:49:16.109Z,2.30
2022-09-03T03:52:46.838Z,3.30
2022-09-03T03:55:27.258Z,3.20
2022-09-03T03:58:04.958Z,3.30
2022-09-03T04:00:40.577Z,8.10
2022-09-03T04:03:16.697Z,10.00
2022-09-03T04:06:18.411Z,6.40
2022-09-03T04:08:59.061Z,5.10
2022-09-03T04:12:03.222Z,3.20
2022-09-03T04:14:57.052Z,5.80
2022-09-03T04:18:03.787Z,4.00
2022-09-03T04:20:40.712Z,5.50
2022-09-03T04:23:38.448Z,3.00
2022-09-03T04:26:18.994Z,4.90
2022-09-03T04:29:14.586Z,6.00
2022-09-03T04:32:07.280Z,6.20
2022-09-03T04:34:40.954Z,3.60
2022-09-03T04:37:16.516Z,1.90
2022-09-03T04:39:54.279Z,4.30
2022-09-03T04:42:32.064Z,10.30
2022-09-03T04:45:06.680Z,5.50
2022-09-03T04:47:44.704Z,3.90
2022-09-03T04:50:16.379Z,4.40
2022-09-03T04:52:53.667Z,5.00
2022-09-03T04:55:28.143Z,2.30
2022-09-03T04:58:05.185Z,3.40
2022-09-03T05:00:43.129Z,5.60
2022-09-03T05:03:38.711Z,4.80
2022-09-03T05:07:07.990Z,4.90
2022-09-03T05:09:42.046Z,3.40
2022-09-03T05:12:35.164Z,3.10
2022-09-03T05:15:09.579Z,3.20
2022-09-03T05:17:41.052Z,5.90
2022-09-03T05:20:19.302Z,3.70
2022-09-03T05:23:13.519Z,3.70
2022-09-03T05:26:05.252Z,5.00
2022-09-03T05:28:45.320Z,3.30
2022-09-03T05:31:23.844Z,2.90
2022-09-03T05:34:05.807Z,2.60
2022-09-03T05:36:39.120Z,3.20
2022-09-03T05:39:14.624Z,2.90
2022-09-03T05:42:02.194Z,4.60
2022-09-03T05:44:39.069Z,2.90
2022-09-03T05:47:27.530Z,2.10
2022-09-03T05:50:26.496Z,2.40
2022-09-03T05:53:19.997Z,1.60
2022-09-03T05:56:01.350Z,2.90
2022-09-03T05:58:39.576Z,3.20
2022-09-03T06:01:25.220Z,2.60
2022-09-03T06:04:43.203Z,3.10
2022-09-03T06:10:17.123Z,1.60
2022-09-03T06:12:54.783Z,2.70
2022-09-03T06:15:29.124Z,2.70
2022-09-03T06:18:06.247Z,4.20
2022-09-03T06:20:39.795Z,1.90
2022-09-03T06:23:32.638Z,2.50
2022-09-03T06:26:48.736Z,2.00
2022-09-03T06:29:46.328Z,1.60
2022-09-03T06:32:53.090Z,2.90
2022-09-03T06:35:46.999Z,4.10
2022-09-03T06:38:43.004Z,4.40
2022-09-03T06:41:43.578Z,4.90
2022-09-03T06:44:40.055Z,5.30
2022-09-03T06:47:58.539Z,1.90
2022-09-03T06:50:36.539Z,4.00
2022-09-03T06:53:10.286Z,3.50
2022-09-03T06:55:45.653Z,2.70
2022-09-03T06:58:21.078Z,3.60
2022-09-03T07:01:22.195Z,5.60
2022-09-03T07:04:59.017Z,2.30
2022-09-03T07:07:33.918Z,3.00
2022-09-03T07:10:11.171Z,2.30
2022-09-03T07:12:55.980Z,2.30
2022-09-03T07:15:31.112Z,7.10
2022-09-03T07:18:10.445Z,3.30
2022-09-03T07:20:39.299Z,5.20
2022-09-03T07:23:11.124Z,3.10
2022-09-03T07:25:43.678Z,2.90
2022-09-03T07:28:12.187Z,3.70
2022-09-03T07:30:40.596Z,4.70
2022-09-03T07:33:09.062Z,5.20
2022-09-03T07:35:37.450Z,2.70
2022-09-03T07:38:05.742Z,5.70
2022-09-03T07:40:34.235Z,3.40
2022-09-03T07:43:04.395Z,3.90
2022-09-03T07:45:33.691Z,5.20
2022-09-03T07:48:02.248Z,3.40
2022-09-03T07:50:34.245Z,3.60
2022-09-03T07:53:02.609Z,3.50
2022-09-03T07:55:30.951Z,5.80
2022-09-03T07:58:02.169Z,4.90
2022-09-03T08:00:33.248Z,5.40
2022-09-03T08:03:06.239Z,4.50
2022-09-03T08:05:38.331Z,3.20
2022-09-03T08:08:07.322Z,7.70
2022-09-03T08:10:38.427Z,4.60
2022-09-03T08:13:07.240Z,3.80
2022-09-03T08:15:37.166Z,5.90
2022-09-03T08:18:05.955Z,3.70
2022-09-03T08:20:35.174Z,4.40
2022-09-03T08:23:05.729Z,4.40
2022-09-03T08:25:36.899Z,5.20
2022-09-03T08:28:06.415Z,10.20
2022-09-03T08:30:35.713Z,3.90
2022-09-03T08:33:07.074Z,3.70
2022-09-03T08:35:37.534Z,3.40
2022-09-03T08:38:09.022Z,4.00
2022-09-03T08:40:39.389Z,5.80
2022-09-03T08:43:18.839Z,3.00
2022-09-03T08:45:47.190Z,3.60
2022-09-03T08:48:25.892Z,5.70
2022-09-03T08:51:00.106Z,3.60
2022-09-03T08:53:49.644Z,3.70
2022-09-03T08:56:26.881Z,3.40
2022-09-03T08:58:56.149Z,3.50
2022-09-03T09:01:54.993Z,3.00
2022-09-03T09:04:45.429Z,3.30
2022-09-03T09:07:48.335Z,3.30
2022-09-03T09:10:41.441Z,6.00
2022-09-03T09:13:58.036Z,5.90
2022-09-03T09:16:45.960Z,3.20
2022-09-03T09:19:27.648Z,5.60
2022-09-03T09:22:01.542Z,4.10
2022-09-03T09:24:43.140Z,2.80
2022-09-03T09:27:17.406Z,3.50
2022-09-03T09:29:50.971Z,4.50
2022-09-03T09:32:21.621Z,3.30
2022-09-03T09:34:57.855Z,6.00
2022-09-03T09:37:26.396Z,3.10
2022-09-03T09:40:03.689Z,3.90
2022-09-03T09:42:32.091Z,3.70
2022-09-03T09:45:11.261Z,18.40
2022-09-03T09:47:40.600Z,5.00
2022-09-03T09:50:27.312Z,2.60
2022-09-03T09:53:14.371Z,2.80
2022-09-03T09:55:56.460Z,3.90
2022-09-03T09:58:30.865Z,2.80
2022-09-03T10:01:13.284Z,8.40
2022-09-03T10:04:00.787Z,4.20
2022-09-03T10:06:50.715Z,7.40
2022-09-03T10:09:26.720Z,5.00
2022-09-03T10:12:07.357Z,5.80
2022-09-03T10:14:47.700Z,3.40
2022-09-03T10:17:57.696Z,5.50
2022-09-03T10:21:05.122Z,2.80
2022-09-03T10:24:02.667Z,3.10
2022-09-03T10:26:36.935Z,3.60
2022-09-03T10:29:07.658Z,3.30
2022-09-03T10:32:09.695Z,5.50
2022-09-03T10:35:14.744Z,2.90
2022-09-03T10:37:49.655Z,2.80
2022-09-03T10:40:41.589Z,5.70
2022-09-03T10:43:30.148Z,4.50
2022-09-03T10:46:26.531Z,3.40
2022-09-03T10:49:32.191Z,4.20
2022-09-03T10:52:10.248Z,7.10
2022-09-03T10:54:48.564Z,2.20
2022-09-03T10:57:36.835Z,2.70
2022-09-03T11:00:13.074Z,2.60
2022-09-03T11:03:16.436Z,3.40
2022-09-03T11:06:03.747Z,2.80
2022-09-03T11:08:35.938Z,3.10
2022-09-03T11:11:33.053Z,2.60
2022-09-03T11:14:16.279Z,3.10
2022-09-03T11:16:51.560Z,2.50
2022-09-03T11:19:32.611Z,3.70
2022-09-03T11:22:02.848Z,9.10
2022-09-03T11:24:33.582Z,2.40
2022-09-03T11:27:30.389Z,3.00
2022-09-03T11:30:15.015Z,2.40
2022-09-03T11:35:42.942Z,4.00
2022-09-03T11:38:17.283Z,3.00
2022-09-03T11:41:26.028Z,2.40
2022-09-03T11:43:55.756Z,3.10
2022-09-03T11:46:24.243Z,2.50
2022-09-03T11:49:25.455Z,2.70
2022-09-03T11:52:10.088Z,2.90
2022-09-03T11:54:46.538Z,2.50
2022-09-03T11:57:31.304Z,5.30
2022-09-03T12:00:13.382Z,4.70
2022-09-03T12:02:52.394Z,3.40
2022-09-03T12:06:13.615Z,3.20
2022-09-03T12:09:13.867Z,3.10
2022-09-03T12:12:17.707Z,4.10
2022-09-03T12:15:10.658Z,2.90
2022-09-03T12:18:13.333Z,3.10
2022-09-03T12:20:43.125Z,3.80
2022-09-03T12:23:15.418Z,2.80
2022-09-03T12:25:47.616Z,5.30
2022-09-03T12:28:23.625Z,3.00
2022-09-03T12:30:55.632Z,3.10
2022-09-03T12:33:24.040Z,4.50
2022-09-03T12:36:01.040Z,3.20
2022-09-03T12:38:40.608Z,2.90
2022-09-03T12:41:28.271Z,5.00
2022-09-03T12:44:01.022Z,3.10
2022-09-03T12:46:34.536Z,3.40
2022-09-03T12:52:06.620Z,4.60
2022-09-03T12:54:44.003Z,3.40
2022-09-03T12:57:26.901Z,3.40
2022-09-03T13:00:00.949Z,4.10
2022-09-03T13:02:51.787Z,3.20
2022-09-03T13:05:26.361Z,3.60
2022-09-03T13:08:05.458Z,3.80
2022-09-03T13:10:42.046Z,4.10
2022-09-03T13:13:26.591Z,4.40
2022-09-03T13:16:15.605Z,2.50
2022-09-03T13:19:02.618Z,3.30
2022-09-03T13:22:20.868Z,6.00
2022-09-03T13:25:12.356Z,2.70
2022-09-03T13:28:27.805Z,3.10
2022-09-03T13:31:29.389Z,4.90
2022-09-03T13:34:24.596Z,3.50
2022-09-03T13:37:23.531Z,4.20
2022-09-03T13:40:01.008Z,3.60
2022-09-03T13:42:53.298Z,3.30
2022-09-03T13:45:45.406Z,3.20
2022-09-03T13:48:46.099Z,3.50
2022-09-03T13:51:29.898Z,4.30
2022-09-03T13:54:42.858Z,4.00
2022-09-03T13:57:24.634Z,6.20
2022-09-03T14:00:02.204Z,2.60
2022-09-03T14:02:52.089Z,6.40
2022-09-03T14:05:27.285Z,4.60
2022-09-03T14:07:58.558Z,6.80
2022-09-03T14:11:13.601Z,4.80
2022-09-03T14:13:54.720Z,5.10
2022-09-03T14:16:37.602Z,5.70
2022-09-03T14:19:58.236Z,5.00
2022-09-03T14:22:46.095Z,4.10
2022-09-03T14:25:22.108Z,4.30
2022-09-03T14:27:51.730Z,5.80
2022-09-03T14:30:44.460Z,3.70
2022-09-03T14:33:39.817Z,4.00
2022-09-03T14:36:22.642Z,4.60
2022-09-03T14:39:34.561Z,3.80
2022-09-03T14:42:32.312Z,3.50
2022-09-03T14:45:24.498Z,3.50
2022-09-03T14:48:25.528Z,5.10
2022-09-03T14:51:06.044Z,3.50
2022-09-03T14:54:13.774Z,3.00
2022-09-03T14:57:00.129Z,4.70
2022-09-03T15:00:18.485Z,3.10
2022-09-03T15:03:12.473Z,3.10
2022-09-03T15:05:55.740Z,4.10
2022-09-03T15:08:47.683Z,2.90
2022-09-03T15:11:24.451Z,2.90
2022-09-03T15:14:09.939Z,3.00
2022-09-03T15:17:00.037Z,6.20
2022-09-03T15:19:49.981Z,3.60
2022-09-03T15:22:37.950Z,3.60
2022-09-03T15:25:42.275Z,3.70
2022-09-03T15:28:34.306Z,3.40
2022-09-03T15:31:35.263Z,3.10
2022-09-03T15:34:27.503Z,4.20
2022-09-03T15:37:05.192Z,3.40
2022-09-03T15:39:40.646Z,8.20
2022-09-03T15:42:29.194Z,3.80
2022-09-03T15:45:14.537Z,3.10
2022-09-03T15:47:51.818Z,4.00
2022-09-03T15:50:40.273Z,3.30
2022-09-03T15:53:53.353Z,3.40
2022-09-03T15:56:49.367Z,5.20
2022-09-03T15:59:48.556Z,3.00
2022-09-03T16:02:50.826Z,3.40
2022-09-03T16:05:43.361Z,3.10
2022-09-03T16:08:14.730Z,3.80
2022-09-03T16:10:55.208Z,4.10
2022-09-03T16:13:48.666Z,3.50
2022-09-03T16:16:45.850Z,3.00
2022-09-03T16:19:42.100Z,3.60
2022-09-03T16:22:30.946Z,5.50
2022-09-03T16:25:24.453Z,3.40
2022-09-03T16:28:21.352Z,17.00
2022-09-03T16:34:05.769Z,4.10
2022-09-03T16:37:29.050Z,3.20
2022-09-03T16:40:32.846Z,4.40
2022-09-03T16:43:44.905Z,3.50
2022-09-03T16:46:23.117Z,4.20
2022-09-03T16:49:23.319Z,3.80
2022-09-03T16:52:20.690Z,4.30
2022-09-03T16:55:10.900Z,4.00
2022-09-03T16:58:24.835Z,3.70
2022-09-03T17:01:12.605Z,4.30
2022-09-03T17:04:08.259Z,3.20
2022-09-03T17:07:04.064Z,3.70
2022-09-03T17:09:56.323Z,4.30
2022-09-03T17:12:49.369Z,3.40
2022-09-03T17:15:37.231Z,9.50
2022-09-03T17:18:25.807Z,6.50
2022-09-03T17:20:59.764Z,4.80
2022-09-03T17:24:03.602Z,5.80
2022-09-03T17:26:55.929Z,54.60
2022-09-03T17:30:03.245Z,32.30
2022-09-03T17:32:57.672Z,168.30
2022-09-03T17:36:04.173Z,215.00
2022-09-03T17:39:37.965Z,243.90
2022-09-03T17:42:17.410Z,136.00
2022-09-03T17:45:07.324Z,75.60
2022-09-03T17:48:23.050Z,113.80
2022-09-03T17:51:07.509Z,76.20
2022-09-03T17:53:52.403Z,218.20
2022-09-03T17:56:35.521Z,86.90
2022-09-03T17:59:16.713Z,223.40
2022-09-03T18:02:21.774Z,92.20
2022-09-03T18:05:07.301Z,96.80
2022-09-03T18:08:08.668Z,61.40
2022-09-03T18:10:36.859Z,62.00
2022-09-03T18:13:30.019Z,115.50
2022-09-03T18:16:32.345Z,126.60
2022-09-03T18:19:18.993Z,260.90
2022-09-03T18:22:09.069Z,286.50
2022-09-03T18:25:28.458Z,42.00
2022-09-03T18:28:28.751Z,11.80
2022-09-03T18:31:15.887Z,10.40
2022-09-03T18:34:02.989Z,5.10
2022-09-03T18:36:51.254Z,5.80
2022-09-03T18:39:48.370Z,4.40
2022-09-03T18:43:15.278Z,5.60
2022-09-03T18:49:37.462Z,32.30
2022-09-03T18:52:55.288Z,10.10
2022-09-03T18:56:14.679Z,8.60
2022-09-03T18:59:12.268Z,6.90
2022-09-03T19:02:01.875Z,5.70
2022-09-03T19:05:31.786Z,4.30
2022-09-03T19:08:38.990Z,6.40
2022-09-03T19:11:53.516Z,5.60
2022-09-03T19:15:24.986Z,7.00
2022-09-03T19:19:16.670Z,7.40
2022-09-03T19:22:28.417Z,16.90
2022-09-03T19:25:28.960Z,16.80
2022-09-03T19:28:33.843Z,30.00
2022-09-03T19:31:49.084Z,20.90
2022-09-03T19:35:03.148Z,12.00
2022-09-03T19:38:08.678Z,8.80
2022-09-03T19:41:34.111Z,12.20
2022-09-03T19:44:34.526Z,8.30
2022-09-03T19:47:25.565Z,11.60
2022-09-03T19:50:43.343Z,12.20
2022-09-03T19:53:36.898Z,14.30
2022-09-03T19:56:41.614Z,13.90
2022-09-03T19:59:38.168Z,11.40
2022-09-03T20:02:25.506Z,8.70
2022-09-03T20:05:19.128Z,6.30
2022-09-03T20:08:09.678Z,7.90
2022-09-03T20:10:38.344Z,7.40
2022-09-03T20:13:15.216Z,6.90
2022-09-03T20:16:07.534Z,6.80
2022-09-03T20:19:16.448Z,7.80
2022-09-03T20:22:47.313Z,6.30
2022-09-03T20:25:36.351Z,8.60
2022-09-03T20:28:29.290Z,9.50
2022-09-03T20:31:25.972Z,7.20
2022-09-03T20:34:37.809Z,6.30
2022-09-03T20:37:51.358Z,5.40
2022-09-03T20:40:33.373Z,6.50
2022-09-03T20:43:24.472Z,10.20
2022-09-03T20:46:06.188Z,10.50
2022-09-03T20:48:56.188Z,6.90
2022-09-03T20:51:33.264Z,8.10
2022-09-03T20:54:20.470Z,8.50
2022-09-03T20:57:29.929Z,5.70
2022-09-03T21:00:14.000Z,6.40
2022-09-03T21:03:13.060Z,6.10
2022-09-03T21:06:02.924Z,8.30
2022-09-03T21:09:14.856Z,6.90
2022-09-03T21:12:03.385Z,9.70
2022-09-03T21:14:47.758Z,8.50
2022-09-03T21:17:28.138Z,8.40
2022-09-03T21:20:32.919Z,9.00
2022-09-03T21:23:44.164Z,10.90
2022-09-03T21:26:31.365Z,8.50
2022-09-03T21:29:09.049Z,8.60
2022-09-03T21:31:54.922Z,11.00
2022-09-03T21:35:06.660Z,9.10
2022-09-03T21:37:40.020Z,9.20
2022-09-03T21:40:13.231Z,7.70
2022-09-03T21:43:08.023Z,7.60
2022-09-03T21:45:52.124Z,11.10
2022-09-03T21:48:35.753Z,7.90
2022-09-03T21:51:23.014Z,20.70
2022-09-03T21:54:30.020Z,26.50
2022-09-03T21:57:26.325Z,12.10
2022-09-03T22:00:15.390Z,9.60
2022-09-03T22:02:46.688Z,9.00
2022-09-03T22:05:17.535Z,8.50
2022-09-03T22:08:11.741Z,8.80
2022-09-03T22:11:08.221Z,9.30
2022-09-03T22:13:58.990Z,11.40
2022-09-03T22:17:08.985Z,11.00
2022-09-03T22:19:38.956Z,9.80
2022-09-03T22:22:24.902Z,10.80
2022-09-03T22:25:17.959Z,10.50
2022-09-03T22:28:20.238Z,9.00
2022-09-03T22:30:56.854Z,7.90
2022-09-03T22:34:21.535Z,10.40
2022-09-03T22:37:19.163Z,10.70
2022-09-03T22:39:47.635Z,9.10
2022-09-03T22:42:40.302Z,9.40
2022-09-03T22:45:32.779Z,9.50
2022-09-03T22:48:03.762Z,8.50
2022-09-03T22:50:59.497Z,8.40
2022-09-03T22:53:36.648Z,10.80
2022-09-03T22:56:14.988Z,8.90
2022-09-03T22:59:02.563Z,8.10
2022-09-03T23:01:48.135Z,8.80
2022-09-03T23:04:41.467Z,9.60
2022-09-03T23:07:33.224Z,10.50
2022-09-03T23:10:09.695Z,9.70
2022-09-03T23:12:45.113Z,7.20
2022-09-03T23:15:30.374Z,8.60
2022-09-03T23:18:27.050Z,11.60
2022-09-03T23:21:30.988Z,8.70
2022-09-03T23:24:18.164Z,10.90
2022-09-03T23:26:51.464Z,8.50
2022-09-03T23:29:23.699Z,7.60
2022-09-03T23:31:57.161Z,8.20
2022-09-03T23:34:27.236Z,8.10
2022-09-03T23:37:33.750Z,8.20
2022-09-03T23:40:40.426Z,8.60
2022-09-03T23:43:31.151Z,9.10
2022-09-03T23:46:25.397Z,8.80
2022-09-03T23:49:38.269Z,9.30
2022-09-03T23:52:34.749Z,7.10
2022-09-03T23:55:13.110Z,6.80
2022-09-03T23:57:54.371Z,8.00
